Time;durP1;ratioP1;P1;durP2;ratioP2;P2;SDS_P1;SDS_P2;PMS_P1;PMS_P2;Temp;Humidity;BMP_temperature;BMP_pressure;BME280_temperature;BME280_humidity;BME280_pressure;Samples;Min_cycle;Max_cycle;Signal;HPM_P1;HPM_P2
2022/01/22 00:00:24;;;;;;;5.95;2.00;;;;;;;0.88;50.43;100331.91;4488680;31;34721;-78
2022/01/22 00:03:02;;;;;;;6.33;1.80;;;;;;;0.87;50.38;100327.47;4475401;31;34097;-78
2022/01/22 00:05:34;;;;;;;3.23;1.40;;;;;;;0.96;49.89;100312.31;4475226;31;33173;-74
2022/01/22 00:08:04;;;;;;;3.50;1.50;;;;;;;1.45;49.43;100306.16;4475388;31;33184;-77
2022/01/22 00:10:32;;;;;;;7.00;1.90;;;;;;;1.19;49.13;100311.19;4475794;31;33694;-77
2022/01/22 00:15:42;;;;;;;6.70;1.87;;;;;;;1.27;48.81;100324.91;4502473;31;33641;-77
2022/01/22 00:18:09;;;;;;;6.00;1.70;;;;;;;1.35;48.29;100309.81;4488117;31;33423;-77
2022/01/22 00:20:37;;;;;;;15.67;5.93;;;;;;;0.84;49.32;100319.63;4475519;31;33790;-77
2022/01/22 00:23:05;;;;;;;7.62;2.80;;;;;;;0.99;49.25;100302.09;4488252;31;35042;-77
2022/01/22 00:25:33;;;;;;;4.30;1.75;;;;;;;1.16;48.69;100321.41;4474803;31;33209;-77
2022/01/22 00:28:09;;;;;;;5.65;1.92;;;;;;;1.35;48.13;100315.22;4488161;31;32915;-77
2022/01/22 00:30:44;;;;;;;6.07;1.73;;;;;;;1.46;47.74;100310.59;4462558;31;32224;-77
2022/01/22 00:33:18;;;;;;;5.37;1.52;;;;;;;1.42;47.61;100311.84;4502249;31;34633;-77
2022/01/22 00:35:51;;;;;;;4.47;1.50;;;;;;;1.22;48.06;100304.66;4488411;31;34053;-77
2022/01/22 00:38:29;;;;;;;5.33;1.80;;;;;;;1.07;48.04;100306.00;4488215;31;33204;-77
2022/01/22 00:41:02;;;;;;;6.32;1.80;;;;;;;1.30;48.01;100302.16;4488337;31;34600;-77
2022/01/22 00:43:41;;;;;;;5.37;1.80;;;;;;;1.13;48.13;100300.06;4475223;31;35108;-77
2022/01/22 00:46:12;;;;;;;3.95;1.95;;;;;;;1.51;47.66;100302.94;4475651;31;34878;-77
2022/01/22 00:48:44;;;;;;;4.18;1.70;;;;;;;1.32;48.01;100297.44;4487849;31;31496;-77
2022/01/22 00:51:20;;;;;;;8.52;1.60;;;;;;;1.52;48.01;100296.53;4462449;31;32255;-77
2022/01/22 00:53:51;;;;;;;4.93;1.70;;;;;;;1.46;48.07;100288.09;4475056;31;33136;-77
2022/01/22 00:56:19;;;;;;;3.87;1.77;;;;;;;1.73;47.51;100287.50;4487963;31;34656;-77
2022/01/22 00:58:49;;;;;;;5.75;1.60;;;;;;;1.55;48.11;100292.69;4502209;31;33499;-77
2022/01/22 01:01:24;;;;;;;5.57;1.77;;;;;;;1.49;48.21;100285.97;4488149;31;34387;-77
2022/01/22 01:04:02;;;;;;;6.00;2.20;;;;;;;1.73;47.58;100279.38;4488282;31;34332;-77
2022/01/22 01:06:33;;;;;;;4.12;1.48;;;;;;;1.58;48.13;100278.91;4488218;31;33685;-77
2022/01/22 01:09:05;;;;;;;5.57;2.00;;;;;;;1.89;47.27;100271.59;4488084;31;33498;-77
2022/01/22 01:12:02;;;;;;;5.80;1.52;;;;;;;1.94;47.42;100264.75;4488102;31;33811;-77
2022/01/22 01:14:38;;;;;;;4.10;1.73;;;;;;;1.60;48.22;100258.81;4476784;31;32922;-77
2022/01/22 01:17:29;;;;;;;6.45;1.73;;;;;;;1.52;48.43;100247.84;4489445;31;33928;-77
2022/01/22 01:34:11;;;;;;;4.80;1.50;;;;;;;1.74;48.35;100199.91;4487462;31;33637;-77
2022/01/22 01:36:40;;;;;;;4.53;1.70;;;;;;;1.78;48.40;100187.81;4487613;31;32821;-77
2022/01/22 01:39:16;;;;;;;4.23;1.57;;;;;;;1.67;48.77;100188.78;4487816;31;33818;-77
2022/01/22 01:42:02;;;;;;;3.97;1.30;;;;;;;1.70;48.74;100185.81;4475463;31;33914;-77
2022/01/22 01:44:33;;;;;;;3.62;1.35;;;;;;;1.64;48.67;100181.81;4461609;31;32261;-77
2022/01/22 01:47:14;;;;;;;5.12;1.65;;;;;;;1.84;48.91;100171.03;4474393;31;33933;-77
2022/01/22 01:49:51;;;;;;;3.80;1.70;;;;;;;1.62;49.39;100155.91;4488253;31;33875;-78
2022/01/22 01:52:31;;;;;;;4.87;1.45;;;;;;;1.89;48.96;100153.34;4475014;31;31762;-77
2022/01/22 01:55:13;;;;;;;3.70;1.33;;;;;;;1.78;49.13;100137.25;4488928;31;33444;-77
2022/01/22 01:57:44;;;;;;;4.40;1.37;;;;;;;1.82;49.22;100140.53;4488777;31;35280;-77
2022/01/22 02:00:20;;;;;;;3.45;1.37;;;;;;;1.83;49.33;100126.00;4488121;31;34468;-77
2022/01/22 02:02:58;;;;;;;5.00;1.40;;;;;;;1.77;49.46;100123.88;4474748;31;31515;-77
2022/01/22 02:05:34;;;;;;;3.83;1.20;;;;;;;1.66;49.48;100122.16;4474893;31;33777;-77
2022/01/22 02:08:09;;;;;;;4.15;1.25;;;;;;;1.56;49.92;100103.22;4475204;31;35354;-77
2022/01/22 02:10:57;;;;;;;5.05;1.45;;;;;;;1.47;49.65;100098.66;4474815;31;33731;-77
2022/01/22 02:25:08;;;;;;;2.67;1.13;;;;;;;1.46;48.76;100080.72;4476078;31;32741;-77
2022/01/22 02:27:40;;;;;;;3.60;1.37;;;;;;;1.83;47.88;100078.16;4474279;31;32260;-77
2022/01/22 02:30:19;;;;;;;2.67;1.17;;;;;;;1.67;48.33;100079.72;4487366;31;35367;-77
2022/01/22 02:38:32;;;;;;;3.62;1.33;;;;;;;1.82;47.78;100068.34;4474681;31;32321;-77
2022/01/22 02:41:16;;;;;;;3.27;1.17;;;;;;;1.65;48.79;100066.34;4488508;31;34403;-77
2022/01/22 02:43:48;;;;;;;2.95;1.10;;;;;;;1.45;49.27;100068.19;4474219;31;32573;-77
2022/01/22 02:46:20;;;;;;;5.62;1.40;;;;;;;1.63;48.46;100071.91;4488416;31;33379;-78
2022/01/22 02:48:54;;;;;;;4.35;1.58;;;;;;;1.57;48.74;100058.94;4487372;31;33459;-77
2022/01/22 02:51:26;;;;;;;2.20;1.10;;;;;;;1.56;48.51;100057.22;4488414;31;34610;-78
2022/01/22 02:54:01;;;;;;;3.03;1.23;;;;;;;1.45;49.05;100061.91;4474574;31;33771;-78
2022/01/22 02:56:38;;;;;;;2.65;1.20;;;;;;;1.36;49.21;100076.28;4474710;31;33187;-77
2022/01/22 02:59:11;;;;;;;6.32;1.52;;;;;;;1.63;48.52;100068.34;4475915;31;34688;-77
2022/01/22 03:01:45;;;;;;;2.37;1.10;;;;;;;1.61;48.61;100068.47;4487562;31;32485;-77
2022/01/22 03:04:13;;;;;;;5.27;1.30;;;;;;;1.49;48.71;100056.09;4486854;31;34534;-77
2022/01/22 03:06:44;;;;;;;4.40;1.50;;;;;;;1.52;48.71;100047.69;4474205;31;32898;-78
2022/01/22 03:09:18;;;;;;;2.60;1.30;;;;;;;1.56;48.72;100050.97;4473168;31;33200;-77
2022/01/22 03:17:53;;;;;;;5.25;1.42;;;;;;;1.41;49.35;100042.41;4488902;31;33193;-77
2022/01/22 03:21:02;;;;;;;7.82;1.45;;;;;;;1.61;49.09;100036.00;4476142;31;34000;-77
2022/01/22 03:29:16;;;;;;;4.50;1.30;;;;;;;1.98;48.65;100027.13;4474973;31;33144;-77
2022/01/22 03:31:51;;;;;;;3.90;1.70;;;;;;;1.97;48.78;100025.41;4487292;31;34420;-77
2022/01/22 03:34:19;;;;;;;3.78;1.67;;;;;;;1.93;49.06;100021.31;4500524;31;35339;-77
2022/01/22 03:36:50;;;;;;;4.80;1.40;;;;;;;1.76;49.62;100027.47;4473384;31;33947;-77
2022/01/22 03:39:27;;;;;;;4.40;1.45;;;;;;;1.85;49.48;100024.75;4486301;31;33261;-77
2022/01/22 03:42:00;;;;;;;5.45;1.77;;;;;;;2.02;49.20;100012.28;4461223;31;33355;-77
2022/01/22 03:44:31;;;;;;;17.37;2.08;;;;;;;1.91;49.29;100024.16;4473470;31;34232;-77
2022/01/22 03:47:04;;;;;;;5.53;1.52;;;;;;;2.05;49.45;100016.56;4486264;31;33580;-77
2022/01/22 03:49:35;;;;;;;4.77;1.77;;;;;;;2.01;49.28;100007.03;4473637;31;33980;-77
2022/01/22 03:52:07;;;;;;;4.47;1.87;;;;;;;2.17;49.14;100000.00;4460397;31;32400;-77
2022/01/22 03:54:41;;;;;;;4.40;1.83;;;;;;;1.99;50.25;99989.06;4473007;31;32884;-77
2022/01/22 03:57:21;;;;;;;5.97;2.27;;;;;;;1.75;50.94;99988.72;4461088;31;32361;-77
2022/01/22 03:59:58;;;;;;;6.53;2.05;;;;;;;1.76;51.33;100001.25;4460687;31;31734;-77
2022/01/22 04:05:27;;;;;;;6.10;1.90;;;;;;;1.78;56.47;99999.25;4500115;31;34351;-78
2022/01/22 04:10:38;;;;;;;5.55;2.20;;;;;;;2.02;58.64;99996.03;4488750;31;33257;-77
2022/01/22 04:13:13;;;;;;;5.85;2.00;;;;;;;2.05;59.00;99997.59;4487565;31;33717;-77
2022/01/22 04:15:49;;;;;;;5.57;2.20;;;;;;;2.16;59.03;99992.87;4488789;31;35172;-77
2022/01/22 04:27:21;;;;;;;5.50;2.17;;;;;;;1.99;61.98;99990.94;4490475;31;34516;-77
2022/01/22 04:29:57;;;;;;;6.47;2.20;;;;;;;2.02;62.08;99997.91;4490457;31;34507;-77
2022/01/22 04:32:37;;;;;;;8.10;2.47;;;;;;;2.19;62.47;99998.00;4489463;31;33152;-78
2022/01/22 04:35:13;;;;;;;5.70;2.50;;;;;;;2.42;62.26;99986.78;4488276;31;33864;-77
2022/01/22 04:37:45;;;;;;;;;;;;;;;2.14;63.84;99985.91;4475851;31;34118;-77
2022/01/22 04:40:22;;;;;;;10.27;2.50;;;;;;;2.17;64.66;99982.91;4488525;31;34065;-77
2022/01/22 04:42:57;;;;;;;6.07;2.37;;;;;;;2.03;65.36;99972.53;4488018;31;34062;-77
2022/01/22 04:48:25;;;;;;;6.20;2.80;;;;;;;2.36;64.57;99963.00;4475727;31;32999;-77
2022/01/22 04:56:46;;;;;;;5.43;2.58;;;;;;;2.64;64.77;99968.25;4460976;31;32366;-77
2022/01/22 04:59:25;;;;;;;8.05;2.70;;;;;;;2.36;65.86;99957.59;4488370;31;34546;-77
2022/01/22 05:01:57;;;;;;;8.02;3.00;;;;;;;2.56;65.10;99959.19;4502131;31;33537;-77
2022/01/22 05:04:33;;;;;;;6.57;2.92;;;;;;;2.70;64.93;99964.09;4462331;31;31684;-77
2022/01/22 05:07:09;;;;;;;8.48;3.28;;;;;;;2.42;66.05;99960.56;4475123;31;34703;-77
2022/01/22 05:09:38;;;;;;;7.83;3.20;;;;;;;2.62;65.74;99970.25;4488214;31;34756;-77
2022/01/22 05:12:09;;;;;;;6.43;3.03;;;;;;;2.78;65.04;99969.59;4488259;31;34515;-77
2022/01/22 05:14:43;;;;;;;7.22;3.20;;;;;;;2.70;65.32;99964.09;4474808;31;31640;-78
2022/01/22 05:17:22;;;;;;;12.20;6.10;;;;;;;2.73;65.14;99971.91;4488205;31;33639;-76
2022/01/22 05:20:09;;;;;;;9.73;4.85;;;;;;;2.84;64.95;99969.00;4475369;31;33972;-77
2022/01/22 05:25:25;;;;;;;;;;;;;;;2.92;64.89;99969.09;4489111;31;34074;-77
2022/01/22 05:39:14;;;;;;;6.70;3.33;;;;;;;3.16;64.38;99968.47;4489749;31;33532;-76
2022/01/22 05:41:45;;;;;;;7.65;3.28;;;;;;;3.04;64.90;99961.56;4462501;31;32807;-76
2022/01/22 05:44:20;;;;;;;7.78;3.62;;;;;;;2.91;65.49;99970.09;4487701;31;33647;-76
2022/01/22 05:46:53;;;;;;;7.00;3.55;;;;;;;2.91;65.49;99966.53;4487929;31;33155;-76
2022/01/22 05:49:27;;;;;;;8.05;3.90;;;;;;;2.90;65.64;99962.09;4487520;31;33104;-77
2022/01/22 05:52:03;;;;;;;10.13;5.03;;;;;;;3.14;65.12;99953.38;4488655;31;34615;-76
2022/01/22 06:00:11;;;;;;;8.82;4.32;;;;;;;3.18;65.09;99952.91;4476530;31;31978;-77
2022/01/22 06:02:59;;;;;;;8.90;4.12;;;;;;;3.34;64.90;99957.59;4502112;31;35319;-77
2022/01/22 06:05:30;;;;;;;6.37;3.50;;;;;;;3.21;65.08;99957.16;4474465;31;33005;-76
2022/01/22 06:08:06;;;;;;;8.10;3.80;;;;;;;3.18;65.35;99971.88;4488755;31;33198;-77
2022/01/22 06:10:39;;;;;;;;;;;;;;;3.37;64.68;99964.56;4488392;31;34564;-77
2022/01/22 06:13:16;;;;;;;7.82;3.65;;;;;;;3.22;65.30;99970.56;4487493;31;34594;-76
2022/01/22 06:15:45;;;;;;;8.27;3.50;;;;;;;3.44;64.48;99971.09;4473949;31;32235;-77
2022/01/22 06:18:19;;;;;;;9.93;3.92;;;;;;;3.22;64.85;99965.16;4460267;31;32845;-77
2022/01/22 06:20:47;;;;;;;7.30;3.80;;;;;;;3.81;67.39;99962.72;4486712;31;34431;-77
2022/01/22 06:23:18;;;;;;;7.45;3.90;;;;;;;3.99;67.92;99966.22;4474496;31;34427;-77
2022/01/22 06:25:52;;;;;;;7.43;2.67;;;;;;;3.87;67.38;99975.66;4487362;31;33970;-78
2022/01/22 06:28:20;;;;;;;5.93;3.17;;;;;;;3.54;66.39;99974.56;4474113;31;32839;-78
2022/01/22 06:30:50;;;;;;;6.50;2.92;;;;;;;3.72;65.77;99975.38;4473820;31;32341;-77
2022/01/22 06:33:24;;;;;;;6.28;2.58;;;;;;;3.76;64.91;99978.63;4474625;31;34301;-76
2022/01/22 06:35:55;;;;;;;6.03;2.58;;;;;;;3.62;64.45;99988.19;4487415;31;33835;-77
2022/01/22 06:38:32;;;;;;;4.95;2.30;;;;;;;3.48;64.76;99986.03;4487387;31;32878;-78
2022/01/22 06:43:51;;;;;;;4.95;2.12;;;;;;;3.54;64.44;99999.84;4489284;31;35234;-77
2022/01/22 06:46:19;;;;;;;8.48;3.30;;;;;;;3.32;64.57;100003.00;4461495;31;33120;-77
2022/01/22 06:48:48;;;;;;;6.55;2.85;;;;;;;3.51;64.05;100005.56;4487418;31;33533;-77
2022/01/22 06:51:22;;;;;;;9.85;4.37;;;;;;;3.56;63.64;100003.25;4474294;31;33722;-77
2022/01/22 06:53:52;;;;;;;16.12;5.80;;;;;;;3.50;63.74;99995.72;4472443;31;33746;-77
2022/01/22 06:56:21;;;;;;;17.02;7.65;;;;;;;3.12;64.86;99994.19;4486942;31;33653;-77
2022/01/22 06:58:52;;;;;;;18.08;7.40;;;;;;;3.50;63.63;99990.31;4473296;31;31846;-77
2022/01/22 07:01:20;;;;;;;13.62;6.82;;;;;;;3.23;64.66;99998.53;4486657;31;33637;-76
2022/01/22 07:03:51;;;;;;;12.75;6.28;;;;;;;3.32;63.91;99994.88;4486788;31;34378;-77
2022/01/22 07:06:22;;;;;;;9.68;4.07;;;;;;;3.40;63.69;99989.53;4473343;31;32133;-77
2022/01/22 07:08:50;;;;;;;7.53;4.43;;;;;;;3.07;64.45;99998.38;4486283;31;33108;-77
2022/01/22 07:11:22;;;;;;;6.78;3.47;;;;;;;2.98;65.23;100006.41;4474153;31;34491;-77
2022/01/22 07:13:57;;;;;;;5.95;2.85;;;;;;;3.19;64.36;100014.28;4460580;31;33039;-76
2022/01/22 07:16:45;;;;;;;8.20;4.12;;;;;;;3.46;63.71;100021.47;4486451;31;33615;-77
2022/01/22 07:19:19;;;;;;;7.30;3.80;;;;;;;3.57;63.09;100021.22;4485815;31;33512;-77
2022/01/22 07:22:04;;;;;;;5.53;2.78;;;;;;;3.46;63.58;100032.31;4461377;31;32361;-77
2022/01/22 07:24:39;;;;;;;6.10;3.20;;;;;;;3.22;64.09;100035.66;4488559;31;35226;-77
2022/01/22 07:27:07;;;;;;;5.53;2.83;;;;;;;3.24;64.02;100033.66;4460514;31;33686;-77
2022/01/22 07:29:43;;;;;;;11.25;5.32;;;;;;;3.29;63.48;100035.88;4461574;31;31727;-77
2022/01/22 07:32:25;;;;;;;6.55;3.78;;;;;;;3.12;64.88;100048.44;4457197;32;32430;-77
2022/01/22 07:34:55;;;;;;;8.90;3.67;;;;;;;3.53;63.32;100048.84;4458867;32;33855;-82
2022/01/22 07:37:23;;;;;;;6.18;3.15;;;;;;;3.34;63.36;100044.41;4464495;31;33757;-78
2022/01/22 07:39:53;;;;;;;8.05;3.42;;;;;;;3.67;62.17;100039.28;4472666;31;32770;-78
2022/01/22 07:42:22;;;;;;;5.57;3.22;;;;;;;3.25;63.30;100042.62;4461863;31;33471;-78
2022/01/22 07:44:53;;;;;;;7.55;3.83;;;;;;;3.55;62.53;100031.38;4465733;31;33899;-77
2022/01/22 07:47:20;;;;;;;17.55;7.43;;;;;;;3.37;63.14;100032.41;4474676;31;35242;-77
2022/01/22 07:49:53;;;;;;;13.02;5.68;;;;;;;3.09;63.92;100045.16;4475311;31;33064;-77
2022/01/22 07:52:27;;;;;;;14.77;6.32;;;;;;;3.06;64.20;100040.06;4462547;31;33064;-76
2022/01/22 07:54:57;;;;;;;7.75;4.05;;;;;;;3.02;64.17;100035.94;4476096;31;34441;-77
2022/01/22 07:57:26;;;;;;;11.90;5.35;;;;;;;2.62;65.29;100029.88;4475580;31;33806;-77
2022/01/22 07:59:56;;;;;;;13.57;6.70;;;;;;;3.00;64.46;100024.41;4475935;31;33007;-77
2022/01/22 08:02:24;;;;;;;8.32;4.78;;;;;;;3.10;64.18;100025.19;4472049;32;33975;-77
2022/01/22 08:04:59;;;;;;;6.60;3.58;;;;;;;3.20;63.95;100017.84;4471486;31;32724;-77
2022/01/22 08:07:36;;;;;;;9.07;4.30;;;;;;;2.86;65.22;100023.91;4462763;31;34548;-77
2022/01/22 08:10:10;;;;;;;7.15;3.83;;;;;;;3.07;64.44;100026.34;4476698;31;32679;-77
2022/01/22 08:12:39;;;;;;;5.93;3.45;;;;;;;2.73;64.99;100020.69;4488241;31;34430;-76
2022/01/22 08:15:10;;;;;;;7.15;3.72;;;;;;;2.46;65.87;100037.81;4473842;31;32746;-78
2022/01/22 08:17:38;;;;;;;9.20;4.07;;;;;;;2.76;65.41;100030.37;4475339;31;33881;-77
2022/01/22 08:20:07;;;;;;;30.83;10.60;;;;;;;2.56;65.78;100029.66;4475445;31;33397;-77
2022/01/22 08:22:41;;;;;;;10.35;4.40;;;;;;;2.26;66.94;100038.88;4475558;31;31778;-77
2022/01/22 08:25:11;;;;;;;36.20;13.25;;;;;;;2.53;66.23;100041.63;4462914;31;33926;-77
2022/01/22 08:28:53;;;;;;;22.42;9.63;;;;;;;2.80;65.47;100042.62;4488555;31;33747;-77
2022/01/22 08:30:33;;;;;;;44.03;15.55;;;;;;;3.23;64.50;100050.06;4477120;31;31911;-77
2022/01/22 08:35:54;;;;;;;55.70;19.40;;;;;;;3.00;64.54;100059.62;4477177;31;32860;-77
2022/01/22 08:38:28;;;;;;;14.77;5.50;;;;;;;2.78;64.66;100063.59;4475384;31;34474;-78
2022/01/22 08:40:57;;;;;;;11.88;6.43;;;;;;;2.19;66.39;100065.69;4485614;31;33117;-77
2022/01/22 08:43:27;;;;;;;9.90;5.65;;;;;;;2.07;67.03;100085.78;4487830;31;34517;-76
2022/01/22 08:45:56;;;;;;;15.23;7.53;;;;;;;2.27;66.30;100092.88;4487330;31;34315;-75
2022/01/22 08:48:29;;;;;;;8.68;4.62;;;;;;;2.71;65.55;100106.69;4487440;31;34413;-78
2022/01/22 08:50:57;;;;;;;8.52;3.67;;;;;;;2.49;65.63;100096.25;4487894;31;34017;-77
2022/01/22 08:53:47;;;;;;;6.82;3.15;;;;;;;2.24;66.30;100092.31;4462692;32;32414;-77
2022/01/22 08:56:16;;;;;;;8.55;4.00;;;;;;;2.56;64.77;100094.66;4472465;32;35342;-75
2022/01/22 08:58:44;;;;;;;9.30;4.45;;;;;;;2.73;64.45;100091.16;4472564;32;33916;-77
2022/01/22 09:01:13;;;;;;;11.35;5.32;;;;;;;3.01;65.00;100085.75;4472722;32;32710;-77
2022/01/22 09:03:41;;;;;;;10.20;3.80;;;;;;;3.24;63.89;100089.75;4485490;32;33651;-77
2022/01/22 09:06:11;;;;;;;5.93;3.00;;;;;;;2.86;63.89;100102.50;4458815;32;32801;-79
2022/01/22 09:08:41;;;;;;;8.05;4.75;;;;;;;2.74;63.77;100102.84;4472917;32;34845;-77
2022/01/22 09:11:09;;;;;;;6.53;3.80;;;;;;;3.13;66.67;100103.53;4448325;31;32134;-78
2022/01/22 09:13:40;;;;;;;8.02;3.67;;;;;;;2.84;63.48;100111.78;4473612;31;33176;-76
2022/01/22 09:16:11;;;;;;;7.55;3.50;;;;;;;3.10;62.92;100118.22;4475221;31;35302;-77
2022/01/22 09:18:45;;;;;;;7.87;3.10;;;;;;;2.61;63.30;100127.56;4474698;31;32434;-77
2022/01/22 09:21:12;;;;;;;7.37;3.22;;;;;;;2.53;63.94;100136.44;4471034;31;33281;-77
2022/01/22 09:23:40;;;;;;;5.30;3.03;;;;;;;2.33;64.62;100136.63;4461285;31;33153;-77
2022/01/22 09:26:11;;;;;;;8.13;3.62;;;;;;;1.64;66.56;100143.09;4461197;31;33523;-77
2022/01/22 09:28:43;;;;;;;6.40;2.60;;;;;;;1.98;65.42;100133.53;4474500;31;33735;-77
2022/01/22 09:31:12;;;;;;;7.10;3.17;;;;;;;2.45;63.94;100149.88;4485560;31;33956;-77
2022/01/22 09:33:43;;;;;;;6.95;3.10;;;;;;;2.11;64.69;100146.78;4473249;31;33111;-76
2022/01/22 09:36:14;;;;;;;7.22;3.40;;;;;;;2.23;64.51;100150.19;4474148;31;32915;-77
2022/01/22 09:38:44;;;;;;;8.80;3.40;;;;;;;2.40;63.72;100154.88;4474774;31;34401;-76
2022/01/22 09:41:17;;;;;;;7.53;3.00;;;;;;;2.61;63.28;100154.66;4470862;31;33308;-77
2022/01/22 09:43:53;;;;;;;8.05;2.87;;;;;;;2.55;62.59;100157.97;4460266;31;32888;-76
2022/01/22 09:46:22;;;;;;;8.05;3.75;;;;;;;2.85;61.91;100155.00;4487367;31;34536;-76
2022/01/22 09:48:51;;;;;;;6.00;3.05;;;;;;;2.64;62.59;100149.78;4487807;31;33973;-76
2022/01/22 09:51:19;;;;;;;7.13;3.70;;;;;;;2.65;62.55;100156.06;4485821;31;33351;-76
2022/01/22 09:53:54;;;;;;;7.30;3.12;;;;;;;2.90;62.21;100155.41;4462049;31;32678;-76
2022/01/22 09:56:24;;;;;;;7.20;3.42;;;;;;;2.49;62.76;100159.41;4487736;31;35086;-76
2022/01/22 09:58:52;;;;;;;10.05;3.78;;;;;;;2.16;63.47;100162.59;4474569;31;33778;-76
2022/01/22 10:01:33;;;;;;;6.55;3.08;;;;;;;2.77;62.11;100160.31;4501971;31;33227;-76
2022/01/22 10:04:03;;;;;;;6.95;3.37;;;;;;;2.03;64.29;100160.16;4486044;31;32165;-76
2022/01/22 10:06:45;;;;;;;8.57;3.62;;;;;;;1.96;64.61;100161.72;4472915;31;34242;-76
2022/01/22 10:09:24;;;;;;;27.60;12.20;;;;;;;2.17;63.64;100159.75;4486585;31;33170;-76
2022/01/22 10:12:15;;;;;;;17.30;6.47;;;;;;;2.43;64.27;100165.41;4488816;31;33553;-76
2022/01/22 10:15:04;;;;;;;12.07;4.60;;;;;;;2.40;62.81;100163.00;4488125;31;33770;-77
2022/01/22 10:17:45;;;;;;;8.75;4.03;;;;;;;2.30;62.59;100159.44;4461147;31;33915;-77
2022/01/22 10:20:24;;;;;;;8.68;4.03;;;;;;;2.31;62.77;100159.28;4486918;31;32591;-77
2022/01/22 10:22:55;;;;;;;8.60;4.63;;;;;;;2.47;62.40;100168.69;4474004;31;32943;-77
2022/01/22 10:25:31;;;;;;;18.27;9.20;;;;;;;2.54;62.11;100176.09;4486845;31;33733;-77
2022/01/22 10:28:02;;;;;;;14.82;5.95;;;;;;;2.11;63.14;100189.22;4487507;31;35188;-78
2022/01/22 10:30:40;;;;;;;9.43;4.43;;;;;;;2.28;62.83;100170.41;4485158;31;33972;-75
2022/01/22 10:33:21;;;;;;;8.40;4.10;;;;;;;2.44;61.77;100174.38;4474546;31;33333;-75
2022/01/22 10:35:51;;;;;;;8.77;4.07;;;;;;;2.59;61.36;100183.78;4473009;31;33217;-77
2022/01/22 10:38:21;;;;;;;9.65;4.12;;;;;;;2.12;62.14;100191.81;4457215;31;32377;-76
2022/01/22 10:40:56;;;;;;;10.98;5.37;;;;;;;2.43;62.13;100180.81;4459573;31;33281;-78
2022/01/22 10:43:36;;;;;;;13.10;5.90;;;;;;;2.87;60.84;100176.53;4494781;31;33163;-77
2022/01/22 10:46:31;;;;;;;8.20;4.00;;;;;;;3.33;59.89;100191.03;4472977;31;32578;-77
2022/01/22 10:49:04;;;;;;;6.78;3.20;;;;;;;2.74;59.45;100189.56;4460902;31;33028;-77
2022/01/22 10:51:45;;;;;;;7.65;3.70;;;;;;;2.72;59.55;100192.41;4472318;31;34427;-76
2022/01/22 10:54:14;;;;;;;7.72;3.90;;;;;;;3.39;58.68;100188.56;4469667;31;31649;-76
2022/01/22 10:56:41;;;;;;;7.00;3.28;;;;;;;3.38;57.65;100192.28;4471906;31;32231;-77
2022/01/22 10:59:11;;;;;;;8.38;3.42;;;;;;;3.63;57.79;100202.44;4471016;31;33759;-76
2022/01/22 11:01:57;;;;;;;13.10;5.60;;;;;;;3.70;57.41;100197.25;4485262;31;33759;-77
2022/01/22 11:04:36;;;;;;;11.95;5.10;;;;;;;3.00;57.65;100209.59;4457271;31;31863;-76
2022/01/22 11:07:07;;;;;;;11.10;4.78;;;;;;;3.81;56.91;100215.19;4483034;31;33187;-76
2022/01/22 11:09:56;;;;;;;27.83;12.65;;;;;;;3.87;56.43;100214.59;4485275;31;33055;-76
2022/01/22 11:12:26;;;;;;;6.85;3.47;;;;;;;3.31;56.72;100215.59;4469198;32;32400;-76
2022/01/22 11:14:58;;;;;;;7.00;2.83;;;;;;;3.03;55.64;100217.44;4471641;32;33410;-76
2022/01/22 11:17:34;;;;;;;5.15;2.72;;;;;;;3.48;54.49;100213.94;4473233;32;34107;-76
2022/01/22 11:20:05;;;;;;;8.45;2.70;;;;;;;3.66;54.12;100220.28;4473950;31;33107;-77
2022/01/22 11:22:34;;;;;;;7.25;2.50;;;;;;;3.46;54.38;100230.37;4475016;31;32288;-76
2022/01/22 11:25:02;;;;;;;7.05;2.92;;;;;;;3.57;54.99;100234.75;4462550;31;33082;-78
2022/01/22 11:27:32;;;;;;;7.40;3.72;;;;;;;3.66;53.42;100227.56;4475162;31;33647;-76
2022/01/22 11:30:08;;;;;;;6.62;2.72;;;;;;;3.47;58.81;100229.38;4474043;31;33776;-77
2022/01/22 11:32:42;;;;;;;5.37;2.67;;;;;;;3.82;53.53;100239.47;4487316;31;34802;-77
2022/01/22 11:35:19;;;;;;;4.82;2.20;;;;;;;3.81;52.14;100242.34;4473656;31;31780;-77
2022/01/22 11:37:47;;;;;;;5.47;2.33;;;;;;;3.51;52.45;100247.06;4485426;31;33688;-77
2022/01/22 11:40:16;;;;;;;4.22;1.92;;;;;;;3.74;52.35;100241.25;4486753;31;32746;-77
2022/01/22 11:43:08;;;;;;;5.65;2.10;;;;;;;3.80;49.04;100246.06;4485049;31;34078;-77
2022/01/22 11:45:44;;;;;;;5.25;2.47;;;;;;;4.23;47.97;100238.03;4470812;32;33871;-78
2022/01/22 11:48:23;;;;;;;9.23;4.35;;;;;;;3.81;51.21;100253.19;4467147;32;33779;-74
2022/01/22 11:50:54;;;;;;;4.97;2.17;;;;;;;4.32;71.25;100248.97;4458048;32;33146;-75
2022/01/22 11:53:37;;;;;;;5.68;2.40;;;;;;;4.23;50.12;100258.91;4481471;32;31962;-76
2022/01/22 11:56:24;;;;;;;4.22;1.92;;;;;;;4.16;49.20;100246.94;4469947;32;33480;-76
2022/01/22 11:58:55;;;;;;;5.87;2.15;;;;;;;3.82;49.26;100246.78;4459943;32;32238;-76
2022/01/22 12:01:56;;;;;;;5.12;2.10;;;;;;;3.54;49.48;100251.34;4472038;32;35372;-80
2022/01/22 12:04:37;;;;;;;5.68;2.62;;;;;;;3.49;48.89;100259.94;4469560;32;33945;-78
2022/01/22 12:07:05;;;;;;;15.32;6.95;;;;;;;4.00;48.56;100263.06;4484165;32;33111;-77
2022/01/22 12:09:42;;;;;;;10.90;4.68;;;;;;;3.96;49.98;100273.38;4470969;32;34443;-77
2022/01/22 12:15:09;;;;;;;6.10;2.92;;;;;;;3.92;49.04;100272.81;4475105;32;33915;-77
2022/01/22 12:23:11;;;;;;;9.32;3.87;;;;;;;4.05;48.50;100277.91;4485392;32;33882;-77
2022/01/22 12:25:41;;;;;;;5.82;2.80;;;;;;;4.08;48.73;100268.59;4472581;32;33909;-77
2022/01/22 12:28:13;;;;;;;11.02;3.00;;;;;;;4.23;47.62;100261.63;4458397;32;31688;-79
2022/01/22 12:30:44;;;;;;;10.45;5.18;;;;;;;4.50;48.79;100271.56;4485323;32;34455;-76
2022/01/22 12:33:30;;;;;;;9.00;3.95;;;;;;;3.70;48.60;100267.84;4459371;32;32816;-77
2022/01/22 12:36:08;;;;;;;6.10;2.75;;;;;;;3.86;48.49;100265.31;4486225;32;34574;-77
2022/01/22 12:38:51;;;;;;;5.03;2.10;;;;;;;3.56;47.79;100268.31;4472312;32;33045;-76
2022/01/22 12:44:13;;;;;;;8.00;3.05;;;;;;;3.24;48.26;100256.06;4480043;31;34041;-77
2022/01/22 12:46:58;;;;;;;4.95;2.22;;;;;;;3.36;49.04;100255.84;4489524;31;33999;-76
2022/01/22 12:49:29;;;;;;;5.90;2.12;;;;;;;3.26;47.51;100266.72;4487867;31;32010;-76
2022/01/22 12:52:13;;;;;;;5.75;2.12;;;;;;;3.46;47.84;100262.94;4475148;31;33243;-76
2022/01/22 12:54:49;;;;;;;4.15;1.70;;;;;;;3.70;46.73;100264.25;4487809;31;33040;-76
2022/01/22 12:57:20;;;;;;;4.65;1.95;;;;;;;3.30;47.40;100266.28;4475511;31;32834;-77
2022/01/22 12:59:56;;;;;;;5.45;1.87;;;;;;;3.38;46.74;100281.81;4462541;31;31721;-77
2022/01/22 13:02:37;;;;;;;4.70;2.00;;;;;;;3.33;47.06;100288.69;4502099;31;34367;-77
2022/01/22 13:05:15;;;;;;;5.90;2.30;;;;;;;2.93;46.72;100293.38;4474831;31;32852;-77
2022/01/22 13:07:54;;;;;;;3.40;1.85;;;;;;;2.74;46.13;100295.25;4475924;31;34605;-77
2022/01/22 13:10:33;;;;;;;4.85;2.28;;;;;;;2.89;46.09;100291.09;4502189;31;33169;-77
2022/01/22 13:13:05;;;;;;;4.37;2.10;;;;;;;2.93;47.16;100287.97;4488633;31;33682;-77
2022/01/22 13:15:36;;;;;;;12.90;5.28;;;;;;;3.16;46.35;100293.06;4487752;31;34261;-77
2022/01/22 13:18:10;;;;;;;25.80;12.40;;;;;;;2.88;46.60;100292.97;4474893;31;34599;-76
2022/01/22 13:20:42;;;;;;;54.42;23.35;;;;;;;3.11;47.04;100292.62;4487702;31;33136;-77
2022/01/22 13:23:21;;;;;;;14.32;5.37;;;;;;;3.17;46.04;100292.91;4488008;31;34792;-77
2022/01/22 13:25:57;;;;;;;5.35;2.17;;;;;;;3.33;45.10;100294.13;4462246;31;33927;-78
2022/01/22 13:28:31;;;;;;;3.30;1.42;;;;;;;2.83;45.40;100299.81;4487286;31;34285;-77
2022/01/22 13:31:09;;;;;;;5.43;2.17;;;;;;;2.98;45.73;100299.22;4474820;31;31826;-76
2022/01/22 13:36:38;;;;;;;6.90;2.50;;;;;;;3.09;44.97;100310.91;4488061;31;34138;-77
2022/01/22 13:47:47;;;;;;;5.30;2.17;;;;;;;3.30;43.95;100336.81;4489696;31;34721;-77
2022/01/22 13:50:18;;;;;;;5.10;2.30;;;;;;;3.58;44.97;100345.03;4462682;31;32161;-77
2022/01/22 13:52:45;;;;;;;7.07;3.30;;;;;;;3.15;44.59;100354.56;4487935;31;33769;-77
2022/01/22 13:55:18;;;;;;;8.60;3.90;;;;;;;3.30;45.01;100350.38;4501792;31;33709;-76
2022/01/22 13:57:47;;;;;;;8.82;3.47;;;;;;;3.74;44.66;100352.53;4487628;31;34728;-77
2022/01/22 14:00:24;;;;;;;11.40;5.43;;;;;;;3.54;44.94;100358.03;4474483;31;33943;-76
2022/01/22 14:03:40;;;;;;;45.85;22.02;;;;;;;3.57;44.43;100359.59;4489866;31;33195;-77